createdAt,value
2019-05-13T00:00:17.525Z,0.00
2019-05-13T00:01:17.510Z,0.00
2019-05-13T00:02:17.498Z,0.00
2019-05-13T00:03:17.488Z,0.00
2019-05-13T00:04:17.539Z,0.00
2019-05-13T00:05:17.464Z,0.00
2019-05-13T00:06:17.452Z,0.00
2019-05-13T00:07:17.440Z,0.00
2019-05-13T00:08:17.434Z,0.00
2019-05-13T00:09:17.419Z,0.00
2019-05-13T00:10:17.471Z,0.00
2019-05-13T00:11:17.396Z,0.00
2019-05-13T00:12:17.383Z,0.00
2019-05-13T00:13:17.373Z,0.00
2019-05-13T00:14:17.359Z,0.00
2019-05-13T00:15:17.349Z,0.00
2019-05-13T00:16:17.406Z,0.00
2019-05-13T00:17:17.324Z,0.00
2019-05-13T00:18:17.314Z,0.00
2019-05-13T00:19:17.303Z,0.00
2019-05-13T00:20:17.303Z,0.00
2019-05-13T00:21:17.281Z,0.00
2019-05-13T00:22:17.333Z,0.00
2019-05-13T00:23:17.257Z,0.00
2019-05-13T00:24:17.245Z,0.00
2019-05-13T00:25:17.233Z,0.00
2019-05-13T00:26:17.224Z,0.00
2019-05-13T00:27:17.212Z,0.00
2019-05-13T00:28:17.262Z,0.00
2019-05-13T00:29:17.187Z,0.00
2019-05-13T00:30:17.176Z,0.00
2019-05-13T00:31:17.163Z,0.00
2019-05-13T00:32:17.151Z,0.00
2019-05-13T00:33:17.143Z,0.00
2019-05-13T00:34:17.196Z,0.00
2019-05-13T00:35:17.117Z,0.00
2019-05-13T00:36:17.105Z,0.00
2019-05-13T00:37:17.093Z,0.00
2019-05-13T00:38:17.082Z,0.00
2019-05-13T00:39:17.072Z,0.00
2019-05-13T00:40:17.131Z,0.00
2019-05-13T00:41:17.051Z,0.00
2019-05-13T00:42:17.039Z,0.00
2019-05-13T00:43:17.026Z,0.00
2019-05-13T00:44:17.012Z,0.00
2019-05-13T00:45:17.001Z,0.00
2019-05-13T00:46:17.055Z,0.00
2019-05-13T00:47:16.979Z,0.00
2019-05-13T00:48:16.965Z,0.00
2019-05-13T00:49:16.958Z,0.00
2019-05-13T00:50:16.944Z,0.00
2019-05-13T00:51:16.932Z,0.00
2019-05-13T00:52:16.987Z,0.00
2019-05-13T00:53:16.908Z,0.00
2019-05-13T00:54:16.896Z,0.00
2019-05-13T00:55:16.884Z,0.00
2019-05-13T00:56:16.875Z,0.00
2019-05-13T00:57:16.862Z,0.00
2019-05-13T00:58:16.917Z,0.00
2019-05-13T00:59:16.842Z,0.00
2019-05-13T01:00:16.831Z,0.00
2019-05-13T01:01:16.819Z,0.00
2019-05-13T01:02:16.807Z,0.00
2019-05-13T01:03:16.794Z,0.00
2019-05-13T01:04:16.851Z,0.00
2019-05-13T01:05:16.771Z,0.00
2019-05-13T01:06:16.760Z,0.00
2019-05-13T01:07:25.966Z,0.00
2019-05-13T01:08:17.735Z,0.00
2019-05-13T01:09:16.741Z,0.00
2019-05-13T01:10:16.775Z,0.00
2019-05-13T01:11:16.701Z,0.00
2019-05-13T01:12:16.690Z,0.00
2019-05-13T01:13:16.682Z,0.00
2019-05-13T01:14:16.668Z,0.00
2019-05-13T01:15:16.655Z,0.00
2019-05-13T01:16:16.710Z,0.00
2019-05-13T01:17:16.632Z,0.00
2019-05-13T01:18:16.620Z,0.00
2019-05-13T01:19:16.610Z,0.00
2019-05-13T01:20:16.598Z,0.00
2019-05-13T01:21:16.584Z,0.00
2019-05-13T01:22:16.636Z,0.00
2019-05-13T01:23:16.571Z,0.00
2019-05-13T01:24:16.551Z,0.00
2019-05-13T01:25:16.540Z,0.00
2019-05-13T01:26:16.529Z,0.00
2019-05-13T01:27:16.516Z,0.00
2019-05-13T01:28:16.574Z,0.00
2019-05-13T01:29:16.493Z,0.00
2019-05-13T01:30:16.481Z,0.00
2019-05-13T01:31:16.472Z,0.00
2019-05-13T01:32:16.460Z,0.00
2019-05-13T01:33:16.448Z,0.00
2019-05-13T01:34:16.498Z,0.00
2019-05-13T01:35:16.424Z,0.00
2019-05-13T01:36:16.414Z,0.00
2019-05-13T01:37:16.403Z,0.00
2019-05-13T01:38:16.391Z,0.00
2019-05-13T01:39:16.378Z,0.00
2019-05-13T01:40:16.435Z,0.00
2019-05-13T01:41:16.355Z,0.00
2019-05-13T01:42:16.343Z,0.00
2019-05-13T01:43:16.336Z,0.00
2019-05-13T01:44:16.320Z,0.00
2019-05-13T01:45:16.311Z,0.00
2019-05-13T01:46:16.525Z,0.00
2019-05-13T01:47:16.286Z,0.00
2019-05-13T01:48:16.278Z,0.00
2019-05-13T01:49:18.612Z,0.00
2019-05-13T01:50:16.254Z,0.00
2019-05-13T01:51:16.241Z,0.00
2019-05-13T01:52:16.293Z,0.00
2019-05-13T01:53:16.219Z,0.00
2019-05-13T01:54:16.208Z,0.00
2019-05-13T01:55:16.198Z,0.00
2019-05-13T01:56:16.185Z,0.00
2019-05-13T01:57:16.174Z,0.00
2019-05-13T01:58:16.231Z,0.00
2019-05-13T01:59:16.151Z,0.00
2019-05-13T02:00:16.140Z,0.00
2019-05-13T02:01:16.132Z,0.00
2019-05-13T02:02:16.127Z,0.00
2019-05-13T02:03:16.107Z,0.00
2019-05-13T02:04:16.164Z,0.00
2019-05-13T02:05:16.082Z,0.00
2019-05-13T02:06:16.072Z,0.00
2019-05-13T02:07:16.061Z,0.00
2019-05-13T02:08:16.059Z,0.00
2019-05-13T02:09:16.038Z,0.00
2019-05-13T02:10:16.096Z,0.00
2019-05-13T02:11:16.018Z,0.00
2019-05-13T02:12:16.006Z,0.00
2019-05-13T02:13:15.994Z,0.00
2019-05-13T02:14:15.982Z,0.00
2019-05-13T02:15:15.971Z,0.00
2019-05-13T02:16:16.025Z,0.00
2019-05-13T02:17:15.950Z,0.00
2019-05-13T02:18:15.936Z,0.00
2019-05-13T02:19:15.926Z,0.00
2019-05-13T02:20:15.914Z,0.00
2019-05-13T02:21:15.904Z,0.00
2019-05-13T02:22:15.955Z,0.00
2019-05-13T02:23:15.881Z,0.00
2019-05-13T02:24:15.872Z,0.00
2019-05-13T02:25:15.911Z,0.00
2019-05-13T02:26:15.849Z,0.00
2019-05-13T02:27:15.840Z,0.00
2019-05-13T02:28:15.902Z,0.00
2019-05-13T02:29:15.813Z,0.00
2019-05-13T02:30:16.583Z,0.00
2019-05-13T02:31:25.023Z,0.00
2019-05-13T02:32:16.788Z,0.00
2019-05-13T02:33:15.771Z,0.00
2019-05-13T02:34:15.821Z,0.00
2019-05-13T02:35:15.748Z,0.00
2019-05-13T02:36:15.735Z,0.00
2019-05-13T02:37:15.725Z,0.00
2019-05-13T02:38:23.858Z,0.00
2019-05-13T02:39:16.763Z,0.00
2019-05-13T02:40:15.695Z,0.00
2019-05-13T02:41:15.680Z,0.00
2019-05-13T02:42:15.670Z,0.00
2019-05-13T02:43:15.658Z,0.00
2019-05-13T02:44:15.646Z,0.00
2019-05-13T02:45:15.704Z,0.00
2019-05-13T02:46:15.624Z,0.00
2019-05-13T02:47:15.616Z,0.00
2019-05-13T02:48:15.605Z,0.00
2019-05-13T02:49:15.595Z,0.00
2019-05-13T02:50:15.583Z,0.00
2019-05-13T02:51:15.639Z,4.00
2019-05-13T02:52:15.558Z,4.00
2019-05-13T02:53:15.546Z,4.00
2019-05-13T02:54:15.537Z,0.00
2019-05-13T02:55:15.529Z,4.00
2019-05-13T02:56:15.516Z,4.00
2019-05-13T02:57:15.569Z,8.00
2019-05-13T02:58:15.491Z,4.00
2019-05-13T02:59:15.480Z,8.00
2019-05-13T03:00:15.470Z,8.00
2019-05-13T03:01:15.461Z,12.00
2019-05-13T03:02:15.449Z,12.00
2019-05-13T03:03:15.505Z,12.00
2019-05-13T03:04:15.430Z,16.00
2019-05-13T03:05:15.417Z,16.00
2019-05-13T03:06:15.409Z,20.00
2019-05-13T03:07:15.390Z,24.00
2019-05-13T03:08:34.179Z,28.00
2019-05-13T03:09:16.437Z,32.00
2019-05-13T03:10:15.364Z,32.00
2019-05-13T03:11:15.344Z,40.00
2019-05-13T03:12:15.361Z,48.00
2019-05-13T03:13:15.324Z,52.00
2019-05-13T03:14:15.308Z,60.00
2019-05-13T03:15:15.364Z,68.00
2019-05-13T03:16:15.287Z,76.00
2019-05-13T03:17:15.274Z,88.00
2019-05-13T03:18:15.268Z,96.00
2019-05-13T03:19:15.255Z,112.00
2019-05-13T03:20:16.706Z,120.00
2019-05-13T03:21:15.303Z,136.00
2019-05-13T03:22:15.217Z,152.00
2019-05-13T03:23:15.210Z,172.00
2019-05-13T03:24:15.198Z,188.00
2019-05-13T03:25:15.184Z,208.00
2019-05-13T03:26:15.172Z,232.00
2019-05-13T03:27:19.642Z,252.00
2019-05-13T03:28:16.154Z,276.00
2019-05-13T03:29:15.137Z,304.00
2019-05-13T03:30:16.943Z,332.00
2019-05-13T03:31:17.381Z,360.00
2019-05-13T03:32:16.746Z,388.00
2019-05-13T03:33:19.486Z,420.00
2019-05-13T03:34:16.439Z,452.00
2019-05-13T03:35:16.876Z,488.00
2019-05-13T03:36:17.011Z,524.00
2019-05-13T03:37:16.272Z,556.00
2019-05-13T03:38:15.038Z,596.00
2019-05-13T03:39:16.631Z,636.00
2019-05-13T03:40:15.018Z,676.00
2019-05-13T03:41:15.004Z,716.00
2019-05-13T03:42:14.992Z,764.00
2019-05-13T03:43:14.981Z,808.00
2019-05-13T03:44:14.968Z,848.00
2019-05-13T03:45:15.027Z,896.00
2019-05-13T03:46:14.948Z,944.00
2019-05-13T03:47:14.932Z,992.00
2019-05-13T03:48:14.924Z,1036.00
2019-05-13T03:49:14.913Z,1088.00
2019-05-13T03:50:14.902Z,1136.00
2019-05-13T03:51:14.960Z,1184.00
2019-05-13T03:52:14.876Z,1232.00
2019-05-13T03:53:14.865Z,1284.00
2019-05-13T03:54:14.856Z,1332.00
2019-05-13T03:55:14.846Z,1380.00
2019-05-13T03:56:14.830Z,1428.00
2019-05-13T03:57:14.889Z,1480.00
2019-05-13T03:58:14.811Z,1528.00
2019-05-13T03:59:14.795Z,1580.00
2019-05-13T04:00:14.794Z,1628.00
2019-05-13T04:01:14.785Z,1676.00
2019-05-13T04:02:14.769Z,1724.00
2019-05-13T04:03:14.825Z,1772.00
2019-05-13T04:04:14.743Z,1824.00
2019-05-13T04:05:14.727Z,1868.00
2019-05-13T04:06:14.719Z,1912.00
2019-05-13T04:07:14.706Z,1960.00
2019-05-13T04:08:14.696Z,2008.00
2019-05-13T04:09:25.507Z,2048.00
2019-05-13T04:10:15.671Z,2096.00
2019-05-13T04:11:14.661Z,2148.00
2019-05-13T04:12:14.648Z,2188.00
2019-05-13T04:13:14.637Z,2236.00
2019-05-13T04:14:14.626Z,2284.00
2019-05-13T04:15:14.687Z,2332.00
2019-05-13T04:16:14.613Z,2376.00
2019-05-13T04:17:14.595Z,2416.00
2019-05-13T04:18:14.580Z,2460.00
2019-05-13T04:19:14.570Z,2500.00
2019-05-13T04:20:14.562Z,2540.00
2019-05-13T04:21:14.612Z,2580.00
2019-05-13T04:22:14.535Z,2620.00
2019-05-13T04:23:14.552Z,2660.00
2019-05-13T04:24:14.511Z,2696.00
2019-05-13T04:25:14.500Z,2736.00
2019-05-13T04:26:15.353Z,2776.00
2019-05-13T04:27:14.545Z,2816.00
2019-05-13T04:28:14.465Z,2848.00
2019-05-13T04:29:14.463Z,2884.00
2019-05-13T04:30:14.442Z,2924.00
2019-05-13T04:31:14.820Z,2964.00
2019-05-13T04:32:14.420Z,3000.00
2019-05-13T04:33:14.487Z,3032.00
2019-05-13T04:34:14.413Z,3068.00
2019-05-13T04:35:14.388Z,3104.00
2019-05-13T04:36:14.374Z,3140.00
2019-05-13T04:37:14.363Z,3172.00
2019-05-13T04:38:14.354Z,3204.00
2019-05-13T04:39:14.416Z,3240.00
2019-05-13T04:40:14.329Z,3268.00
2019-05-13T04:41:14.327Z,3300.00
2019-05-13T04:42:14.318Z,3332.00
2019-05-13T04:43:14.300Z,3360.00
2019-05-13T04:44:14.288Z,3388.00
2019-05-13T04:45:14.366Z,3420.00
2019-05-13T04:46:14.792Z,3444.00
2019-05-13T04:47:14.254Z,3476.00
2019-05-13T04:48:14.242Z,3504.00
2019-05-13T04:49:14.239Z,3528.00
2019-05-13T04:50:14.239Z,3556.00
2019-05-13T04:51:14.429Z,3584.00
2019-05-13T04:52:14.198Z,3608.00
2019-05-13T04:53:14.184Z,3632.00
2019-05-13T04:54:14.177Z,3660.00
2019-05-13T04:55:14.161Z,3688.00
2019-05-13T04:56:14.502Z,3712.00
2019-05-13T04:57:14.208Z,3736.00
2019-05-13T04:58:14.128Z,3760.00
2019-05-13T04:59:14.137Z,3780.00
2019-05-13T05:00:14.108Z,3808.00
2019-05-13T05:01:14.434Z,3836.00
2019-05-13T05:02:14.085Z,3856.00
2019-05-13T05:03:22.974Z,3880.00
2019-05-13T05:04:24.079Z,3904.00
2019-05-13T05:05:15.890Z,3928.00
2019-05-13T05:06:14.042Z,3952.00
2019-05-13T05:07:14.043Z,3972.00
2019-05-13T05:08:14.018Z,3996.00
2019-05-13T05:09:14.092Z,4024.00
2019-05-13T05:10:26.450Z,4044.00
2019-05-13T05:11:14.997Z,4072.00
2019-05-13T05:12:13.981Z,4104.00
2019-05-13T05:13:13.967Z,4128.00
2019-05-13T05:14:13.950Z,4156.00
2019-05-13T05:15:14.015Z,4184.00
2019-05-13T05:16:13.951Z,4220.00
2019-05-13T05:17:13.914Z,4276.00
2019-05-13T05:18:13.903Z,4352.00
2019-05-13T05:19:13.894Z,4404.00
2019-05-13T05:20:13.881Z,4464.00
2019-05-13T05:21:13.937Z,4448.00
2019-05-13T05:22:13.856Z,4448.00
2019-05-13T05:23:13.844Z,4456.00
2019-05-13T05:24:13.834Z,4508.00
2019-05-13T05:25:13.825Z,4584.00
2019-05-13T05:26:15.306Z,4676.00
2019-05-13T05:27:13.867Z,4804.00
2019-05-13T05:28:13.788Z,4864.00
2019-05-13T05:29:13.777Z,4952.00
2019-05-13T05:30:13.765Z,5000.00
2019-05-13T05:31:13.756Z,5064.00
2019-05-13T05:32:13.752Z,5128.00
2019-05-13T05:33:13.800Z,5244.00
2019-05-13T05:34:13.720Z,5428.00
2019-05-13T05:35:13.713Z,5760.00
2019-05-13T05:36:13.697Z,8760.00
2019-05-13T05:37:13.689Z,13876.00
2019-05-13T05:38:13.680Z,17312.00
2019-05-13T05:39:13.732Z,18144.00
2019-05-13T05:40:27.112Z,19136.00
2019-05-13T05:41:14.644Z,19840.00
2019-05-13T05:42:13.629Z,19712.00
2019-05-13T05:43:13.618Z,19072.00
2019-05-13T05:44:13.620Z,19744.00
2019-05-13T05:45:13.667Z,20224.00
2019-05-13T05:46:13.584Z,21216.00
2019-05-13T05:47:13.574Z,22048.00
2019-05-13T05:48:13.561Z,22752.00
2019-05-13T05:49:13.550Z,22944.00
2019-05-13T05:50:13.538Z,23072.00
2019-05-13T05:51:13.598Z,24192.00
2019-05-13T05:52:13.515Z,25248.00
2019-05-13T05:53:13.505Z,25856.00
2019-05-13T05:54:14.737Z,26240.00
2019-05-13T05:55:13.484Z,26176.00
2019-05-13T05:56:13.476Z,25920.00
2019-05-13T05:57:13.558Z,26624.00
2019-05-13T05:58:13.448Z,27616.00
2019-05-13T05:59:13.439Z,28064.00
2019-05-13T06:00:13.427Z,28320.00
2019-05-13T06:01:13.411Z,27872.00
2019-05-13T06:02:13.399Z,26976.00
2019-05-13T06:03:14.088Z,26176.00
2019-05-13T06:04:13.379Z,26016.00
2019-05-13T06:05:13.366Z,25408.00
2019-05-13T06:06:13.357Z,28096.00
2019-05-13T06:07:13.344Z,29184.00
2019-05-13T06:08:13.331Z,27776.00
2019-05-13T06:09:13.389Z,27264.00
2019-05-13T06:10:13.311Z,29536.00
2019-05-13T06:11:13.299Z,31296.00
2019-05-13T06:12:13.290Z,31104.00
2019-05-13T06:13:13.274Z,32000.00
2019-05-13T06:14:13.266Z,31776.00
2019-05-13T06:15:13.332Z,31296.00
2019-05-13T06:16:13.241Z,32480.00
2019-05-13T06:17:13.236Z,32224.00
2019-05-13T06:18:13.219Z,30400.00
2019-05-13T06:19:13.205Z,26272.00
2019-05-13T06:20:13.543Z,26752.00
2019-05-13T06:21:13.249Z,28960.00
2019-05-13T06:22:13.170Z,28256.00
2019-05-13T06:23:13.159Z,33088.00
2019-05-13T06:24:13.148Z,32832.00
2019-05-13T06:25:14.485Z,29376.00
2019-05-13T06:26:13.124Z,27808.00
2019-05-13T06:27:13.192Z,30144.00
2019-05-13T06:28:13.101Z,30336.00
2019-05-13T06:29:13.093Z,32160.00
2019-05-13T06:30:13.080Z,27136.00
2019-05-13T06:31:13.067Z,27040.00
2019-05-13T06:32:21.555Z,34528.00
2019-05-13T06:33:14.116Z,36480.00
2019-05-13T06:34:13.033Z,36160.00
2019-05-13T06:35:13.033Z,36192.00
2019-05-13T06:36:13.017Z,37088.00
2019-05-13T06:37:12.998Z,30592.00
2019-05-13T06:38:12.994Z,37440.00
2019-05-13T06:39:13.043Z,37696.00
2019-05-13T06:40:12.966Z,38272.00
2019-05-13T06:41:14.739Z,39040.00
2019-05-13T06:42:12.946Z,43392.00
2019-05-13T06:43:12.930Z,41600.00
2019-05-13T06:44:12.925Z,42944.00
2019-05-13T06:45:12.980Z,42848.00
2019-05-13T06:46:12.896Z,41184.00
2019-05-13T06:47:12.885Z,40768.00
2019-05-13T06:48:12.882Z,41024.00
2019-05-13T06:49:12.862Z,33184.00
2019-05-13T06:50:12.853Z,36128.00
2019-05-13T06:51:12.911Z,39040.00
2019-05-13T06:52:12.828Z,28096.00
2019-05-13T06:53:12.934Z,11652.00
2019-05-13T06:54:12.804Z,9080.00
2019-05-13T06:55:12.797Z,8524.00
2019-05-13T06:56:12.780Z,8264.00
2019-05-13T06:57:13.594Z,8116.00
2019-05-13T06:58:12.757Z,8008.00
2019-05-13T06:59:12.752Z,7936.00
2019-05-13T07:00:12.740Z,7884.00
2019-05-13T07:01:12.724Z,7836.00
2019-05-13T07:02:12.715Z,7808.00
2019-05-13T07:03:13.044Z,7776.00
2019-05-13T07:04:12.689Z,7768.00
2019-05-13T07:05:12.679Z,7772.00
2019-05-13T07:06:12.672Z,7776.00
2019-05-13T07:07:16.892Z,7812.00
2019-05-13T07:08:12.647Z,7840.00
2019-05-13T07:09:12.711Z,7876.00
2019-05-13T07:10:12.896Z,7892.00
2019-05-13T07:11:20.408Z,7912.00
2019-05-13T07:12:13.604Z,7932.00
2019-05-13T07:13:12.588Z,7952.00
2019-05-13T07:14:12.939Z,7984.00
2019-05-13T07:15:12.634Z,8028.00
2019-05-13T07:16:12.553Z,8100.00
2019-05-13T07:17:12.587Z,8152.00
2019-05-13T07:18:15.941Z,8208.00
2019-05-13T07:19:12.521Z,8268.00
2019-05-13T07:20:12.517Z,8336.00
2019-05-13T07:21:12.710Z,8416.00
2019-05-13T07:22:12.486Z,8504.00
2019-05-13T07:23:12.595Z,8596.00
2019-05-13T07:24:12.933Z,8680.00
2019-05-13T07:25:12.452Z,8764.00
2019-05-13T07:26:12.442Z,8852.00
2019-05-13T07:27:12.506Z,8940.00
2019-05-13T07:28:12.880Z,9060.00
2019-05-13T07:29:13.145Z,9168.00
2019-05-13T07:30:12.399Z,9284.00
2019-05-13T07:31:12.388Z,9428.00
2019-05-13T07:32:12.371Z,9588.00
2019-05-13T07:33:12.900Z,9760.00
2019-05-13T07:34:12.355Z,9912.00
2019-05-13T07:35:14.408Z,9972.00
2019-05-13T07:36:12.876Z,10024.00
2019-05-13T07:37:12.316Z,10076.00
2019-05-13T07:38:12.307Z,10124.00
2019-05-13T07:39:12.367Z,10212.00
2019-05-13T07:40:12.282Z,10304.00
2019-05-13T07:41:12.275Z,10396.00
2019-05-13T07:42:12.571Z,10524.00
2019-05-13T07:43:12.596Z,10668.00
2019-05-13T07:44:12.234Z,10768.00
2019-05-13T07:45:12.447Z,10888.00
2019-05-13T07:46:12.736Z,11008.00
2019-05-13T07:47:15.265Z,11100.00
2019-05-13T07:48:20.910Z,11240.00
2019-05-13T07:49:13.177Z,11348.00
2019-05-13T07:50:12.804Z,11436.00
2019-05-13T07:51:12.225Z,11536.00
2019-05-13T07:52:12.144Z,11612.00
2019-05-13T07:53:18.164Z,11720.00
2019-05-13T07:54:13.119Z,11792.00
2019-05-13T07:55:12.191Z,11912.00
2019-05-13T07:56:12.620Z,12060.00
2019-05-13T07:57:12.414Z,12176.00
2019-05-13T07:58:12.075Z,12308.00
2019-05-13T07:59:12.480Z,12416.00
2019-05-13T08:00:12.612Z,12524.00
2019-05-13T08:01:12.460Z,12636.00
2019-05-13T08:02:12.484Z,12724.00
2019-05-13T08:03:12.555Z,12852.00
2019-05-13T08:04:22.050Z,12928.00
2019-05-13T08:05:12.994Z,13036.00
2019-05-13T08:06:11.980Z,13104.00
2019-05-13T08:07:12.291Z,13216.00
2019-05-13T08:08:12.125Z,13264.00
2019-05-13T08:09:12.926Z,13304.00
2019-05-13T08:10:11.940Z,13400.00
2019-05-13T08:11:12.849Z,13468.00
2019-05-13T08:12:14.294Z,13520.00
2019-05-13T08:13:12.225Z,13592.00
2019-05-13T08:14:12.441Z,13652.00
2019-05-13T08:15:12.163Z,13740.00
2019-05-13T08:16:12.332Z,13784.00
2019-05-13T08:17:11.872Z,13836.00
2019-05-13T08:18:12.329Z,13900.00
2019-05-13T08:19:12.467Z,13952.00
2019-05-13T08:20:12.668Z,13952.00
2019-05-13T08:21:12.414Z,14000.00
2019-05-13T08:22:12.238Z,14032.00
2019-05-13T08:23:12.251Z,14028.00
2019-05-13T08:24:12.068Z,14064.00
2019-05-13T08:25:12.589Z,14092.00
2019-05-13T08:26:12.464Z,14088.00
2019-05-13T08:27:11.934Z,14092.00
2019-05-13T08:28:12.432Z,14108.00
2019-05-13T08:29:11.718Z,14080.00
2019-05-13T08:30:11.985Z,14104.00
2019-05-13T08:31:12.078Z,14092.00
2019-05-13T08:32:11.686Z,14088.00
2019-05-13T08:33:12.497Z,14120.00
2019-05-13T08:34:12.030Z,14148.00
2019-05-13T08:35:12.549Z,14176.00
2019-05-13T08:36:12.261Z,14200.00
2019-05-13T08:37:11.700Z,14184.00
2019-05-13T08:38:12.182Z,14244.00
2019-05-13T08:39:12.697Z,14224.00
2019-05-13T08:40:12.198Z,14148.00
2019-05-13T08:41:18.840Z,14044.00
2019-05-13T08:42:16.775Z,13992.00
2019-05-13T08:43:12.564Z,13928.00
2019-05-13T08:44:12.347Z,13860.00
2019-05-13T08:45:12.208Z,13804.00
2019-05-13T08:46:12.503Z,13744.00
2019-05-13T08:47:12.085Z,13660.00
2019-05-13T08:48:12.802Z,13636.00
2019-05-13T08:49:12.006Z,13572.00
2019-05-13T08:50:12.122Z,13476.00
2019-05-13T08:51:11.822Z,13416.00
2019-05-13T08:52:12.242Z,13308.00
2019-05-13T08:53:12.325Z,13296.00
2019-05-13T08:54:11.676Z,13292.00
2019-05-13T08:55:15.881Z,13296.00
2019-05-13T08:56:12.180Z,13304.00
2019-05-13T08:57:11.940Z,13308.00
2019-05-13T08:58:12.501Z,13256.00
2019-05-13T08:59:11.671Z,13264.00
2019-05-13T09:00:13.634Z,13252.00
2019-05-13T09:01:12.384Z,13248.00
2019-05-13T09:02:11.674Z,13220.00
2019-05-13T09:03:12.142Z,13232.00
2019-05-13T09:04:12.044Z,13196.00
2019-05-13T09:05:12.054Z,13244.00
2019-05-13T09:06:11.725Z,13324.00
2019-05-13T09:07:12.152Z,13428.00
2019-05-13T09:08:11.581Z,13540.00
2019-05-13T09:09:11.679Z,13804.00
2019-05-13T09:10:12.471Z,14140.00
2019-05-13T09:11:12.034Z,14560.00
2019-05-13T09:12:11.712Z,15880.00
2019-05-13T09:13:12.083Z,37952.00
2019-05-13T09:14:11.414Z,77696.00
2019-05-13T09:15:12.028Z,88768.00
2019-05-13T09:16:13.318Z,89504.00
2019-05-13T09:17:12.051Z,90624.00
2019-05-13T09:18:11.490Z,90048.00
2019-05-13T09:19:15.949Z,92192.00
2019-05-13T09:20:12.209Z,93280.00
2019-05-13T09:21:11.756Z,92640.00
2019-05-13T09:22:12.359Z,93664.00
2019-05-13T09:23:11.519Z,93920.00
2019-05-13T09:24:23.981Z,90912.00
2019-05-13T09:25:12.599Z,91168.00
2019-05-13T09:26:11.961Z,91424.00
2019-05-13T09:27:12.097Z,93120.00
2019-05-13T09:28:12.502Z,92704.00
2019-05-13T09:29:11.858Z,91360.00
2019-05-13T09:30:11.784Z,91968.00
2019-05-13T09:31:12.566Z,93024.00
2019-05-13T09:32:12.136Z,94912.00
2019-05-13T09:33:11.556Z,95840.00
2019-05-13T09:34:12.183Z,94144.00
2019-05-13T09:35:11.955Z,95456.00
2019-05-13T09:36:12.573Z,89376.00
2019-05-13T09:37:11.870Z,93792.00
2019-05-13T09:38:12.662Z,92352.00
2019-05-13T09:39:12.704Z,94784.00
2019-05-13T09:40:11.561Z,94784.00
2019-05-13T09:41:12.332Z,95456.00
2019-05-13T09:42:12.678Z,96704.00
2019-05-13T09:43:11.607Z,96192.00
2019-05-13T09:44:12.337Z,96352.00
2019-05-13T09:45:12.263Z,94656.00
2019-05-13T09:46:11.877Z,95616.00
2019-05-13T09:47:12.418Z,96384.00
2019-05-13T09:48:12.924Z,97888.00
2019-05-13T09:49:19.203Z,88192.00
2019-05-13T09:50:27.621Z,102016.00
2019-05-13T09:51:12.464Z,100448.00
2019-05-13T09:52:11.945Z,107520.00
2019-05-13T09:53:11.492Z,108896.00
2019-05-13T09:54:11.725Z,108992.00
2019-05-13T09:55:25.562Z,109696.00
2019-05-13T09:56:12.023Z,28224.00
2019-05-13T09:57:12.142Z,109664.00
2019-05-13T09:58:11.836Z,107328.00
2019-05-13T09:59:11.722Z,111936.00
2019-05-13T10:00:12.185Z,19008.00
2019-05-13T10:01:12.400Z,107616.00
2019-05-13T10:02:12.516Z,102560.00
2019-05-13T10:03:13.525Z,104736.00
2019-05-13T10:04:11.920Z,107264.00
2019-05-13T10:05:11.558Z,102816.00
2019-05-13T10:06:12.663Z,103072.00
2019-05-13T10:07:12.389Z,99488.00
2019-05-13T10:08:12.565Z,100224.00
2019-05-13T10:09:12.622Z,100288.00
2019-05-13T10:10:11.981Z,99392.00
2019-05-13T10:11:12.330Z,101440.00
2019-05-13T10:12:12.180Z,101536.00
2019-05-13T10:13:13.064Z,104320.00
2019-05-13T10:14:11.912Z,105952.00
2019-05-13T10:15:12.682Z,106176.00
2019-05-13T10:16:12.462Z,108736.00
2019-05-13T10:17:12.884Z,105184.00
2019-05-13T10:18:12.525Z,107296.00
2019-05-13T10:19:12.692Z,105632.00
2019-05-13T10:20:12.082Z,108352.00
2019-05-13T10:21:10.458Z,104608.00
2019-05-13T10:22:12.003Z,103296.00
2019-05-13T10:23:12.588Z,103680.00
2019-05-13T10:24:12.585Z,103648.00
2019-05-13T10:25:12.056Z,103232.00
2019-05-13T10:26:13.639Z,102528.00
2019-05-13T10:27:12.164Z,103584.00
2019-05-13T10:28:12.683Z,104608.00
2019-05-13T10:29:11.928Z,105824.00
2019-05-13T10:30:11.461Z,105440.00
2019-05-13T10:31:11.965Z,109280.00
2019-05-13T10:32:10.405Z,102176.00
2019-05-13T10:33:12.369Z,103072.00
2019-05-13T10:34:10.317Z,102016.00
2019-05-13T10:35:10.304Z,97120.00
2019-05-13T10:36:12.162Z,100000.00
2019-05-13T10:37:11.346Z,98016.00
2019-05-13T10:38:13.148Z,96800.00
2019-05-13T10:39:11.887Z,99712.00
2019-05-13T10:40:11.582Z,98080.00
2019-05-13T10:41:11.936Z,99648.00
2019-05-13T10:42:12.136Z,97824.00
2019-05-13T10:43:28.121Z,99360.00
2019-05-13T10:44:12.145Z,102528.00
2019-05-13T10:45:12.935Z,100384.00
2019-05-13T10:46:12.777Z,100384.00
2019-05-13T10:47:12.036Z,97184.00
2019-05-13T10:48:12.811Z,90464.00
2019-05-13T10:49:12.210Z,100128.00
2019-05-13T10:50:10.213Z,101184.00
2019-05-13T10:51:12.889Z,105632.00
2019-05-13T10:52:12.239Z,104992.00
2019-05-13T10:53:12.272Z,103968.00
2019-05-13T10:54:10.098Z,107392.00
2019-05-13T10:55:12.880Z,106240.00
2019-05-13T10:56:10.143Z,104576.00
2019-05-13T10:57:13.362Z,106752.00
2019-05-13T10:58:12.270Z,105792.00
2019-05-13T10:59:12.567Z,105024.00
2019-05-13T11:00:12.224Z,105248.00
2019-05-13T11:01:11.652Z,105600.00
2019-05-13T11:02:13.089Z,104704.00
2019-05-13T11:03:11.774Z,105632.00
2019-05-13T11:04:13.313Z,104960.00
2019-05-13T11:05:12.271Z,100832.00
2019-05-13T11:06:11.691Z,104448.00
2019-05-13T11:07:12.083Z,105504.00
2019-05-13T11:08:10.015Z,106048.00
2019-05-13T11:09:12.768Z,105024.00
2019-05-13T11:10:10.538Z,105760.00
2019-05-13T11:11:10.204Z,104096.00
2019-05-13T11:12:12.172Z,107040.00
2019-05-13T11:13:10.772Z,105024.00
2019-05-13T11:14:12.864Z,104512.00
2019-05-13T11:15:10.868Z,105312.00
2019-05-13T11:16:12.189Z,102848.00
2019-05-13T11:17:12.307Z,104416.00
2019-05-13T11:18:14.188Z,106240.00
2019-05-13T11:19:11.922Z,105600.00
2019-05-13T11:20:12.244Z,106784.00
2019-05-13T11:21:12.769Z,105120.00
2019-05-13T11:22:12.317Z,104256.00
2019-05-13T11:23:12.465Z,102656.00
2019-05-13T11:24:12.726Z,103488.00
2019-05-13T11:25:11.804Z,104000.00
2019-05-13T11:26:10.093Z,107104.00
2019-05-13T11:27:11.993Z,106752.00
2019-05-13T11:28:11.620Z,104512.00
2019-05-13T11:29:12.088Z,105696.00
2019-05-13T11:30:09.726Z,101568.00
2019-05-13T11:31:09.769Z,101312.00
2019-05-13T11:32:09.687Z,102496.00
2019-05-13T11:33:10.301Z,104768.00
2019-05-13T11:34:09.670Z,107872.00
2019-05-13T11:35:12.788Z,108128.00
2019-05-13T11:36:12.407Z,114752.00
2019-05-13T11:37:12.401Z,111424.00
2019-05-13T11:38:12.055Z,108032.00
2019-05-13T11:39:12.692Z,22784.00
2019-05-13T11:40:12.037Z,107808.00
2019-05-13T11:41:11.839Z,104768.00
2019-05-13T11:42:13.201Z,103392.00
2019-05-13T11:43:12.134Z,102496.00
2019-05-13T11:44:16.122Z,101280.00
2019-05-13T11:45:11.725Z,100768.00
2019-05-13T11:46:09.539Z,100224.00
2019-05-13T11:47:12.195Z,96672.00
2019-05-13T11:48:09.921Z,96128.00
2019-05-13T11:49:11.783Z,95328.00
2019-05-13T11:50:11.556Z,94432.00
2019-05-13T11:51:12.808Z,94944.00
2019-05-13T11:52:11.664Z,97952.00
2019-05-13T11:53:28.059Z,98528.00
2019-05-13T11:54:14.036Z,99616.00
2019-05-13T11:55:12.772Z,96608.00
2019-05-13T11:56:11.546Z,97056.00
2019-05-13T11:57:11.694Z,93216.00
2019-05-13T11:58:13.474Z,94656.00
2019-05-13T11:59:09.428Z,96704.00
2019-05-13T12:00:12.891Z,100832.00
2019-05-13T12:01:09.378Z,99840.00
2019-05-13T12:02:13.241Z,98368.00
2019-05-13T12:03:09.357Z,95680.00
2019-05-13T12:04:09.346Z,93920.00
2019-05-13T12:05:09.342Z,95424.00
2019-05-13T12:06:09.397Z,94432.00
2019-05-13T12:07:09.316Z,94880.00
2019-05-13T12:08:12.523Z,98208.00
2019-05-13T12:09:09.291Z,94912.00
2019-05-13T12:10:12.275Z,95136.00